Time;durP1;ratioP1;P1;durP2;ratioP2;P2;SDS_P1;SDS_P2;PMS_P1;PMS_P2;Temp;Humidity;BMP_temperature;BMP_pressure;BME280_temperature;BME280_humidity;BME280_pressure;Samples;Min_cycle;Max_cycle;Signal;HPM_P1;HPM_P2
2022/12/04 00:00:30;;;;;;;;;;;1.90;99.90;;;0.93;100.00;96926.50;5039813;28;19927;-39
2022/12/04 00:02:56;;;;;;;;;;;1.90;99.90;;;0.88;100.00;96933.47;5036182;28;19920;-39
2022/12/04 00:05:21;;;;;;;;;;;1.90;99.90;;;0.87;100.00;96929.16;5025099;28;20066;-39
2022/12/04 00:07:47;;;;;;;;;;;1.90;99.90;;;0.89;100.00;96920.47;5038150;28;19918;-39
2022/12/04 00:10:13;;;;;;;;;;;1.90;99.90;;;0.83;100.00;96925.72;5044071;28;19921;-39
2022/12/04 00:12:38;;;;;;;;;;;1.90;99.90;;;0.78;100.00;96927.47;5043369;28;20351;-39
2022/12/04 00:15:04;;;;;;;;;;;1.80;99.90;;;0.71;100.00;96926.63;5037458;28;19935;-39
2022/12/04 00:17:30;;;;;;;;;;;1.80;99.90;;;0.75;100.00;96919.69;5039142;28;19920;-39
2022/12/04 00:19:56;;;;;;;;;;;1.80;99.90;;;0.78;100.00;96922.28;5045095;28;19927;-39
2022/12/04 00:22:21;;;;;;;;;;;1.80;99.90;;;0.84;100.00;96924.84;5052199;28;20705;-39
2022/12/04 00:24:47;;;;;;;;;;;1.80;99.90;;;0.85;100.00;96908.41;5047394;28;19912;-39
2022/12/04 00:27:13;;;;;;;;;;;1.90;99.90;;;0.84;100.00;96909.25;5042566;28;20398;-39
2022/12/04 00:29:38;;;;;;;;;;;1.90;99.90;;;0.77;100.00;96884.19;5047327;28;19951;-39
2022/12/04 00:32:04;;;;;;;;;;;1.90;99.90;;;0.88;100.00;96900.59;5049774;28;19921;-39
2022/12/04 00:34:29;;;;;;;;;;;1.90;99.90;;;0.87;100.00;96901.47;5050636;28;19920;-39
2022/12/04 00:36:55;;;;;;;;;;;1.90;99.90;;;0.87;100.00;96906.66;5051000;28;19936;-39
2022/12/04 00:39:21;;;;;;;;;;;1.90;99.90;;;0.85;100.00;96911.00;5051198;28;20242;-39
2022/12/04 00:41:46;;;;;;;;;;;1.90;99.90;;;0.86;100.00;96904.06;5049904;28;19919;-39
2022/12/04 00:44:12;;;;;;;;;;;1.90;99.90;;;0.86;100.00;96910.13;5050666;28;20299;-39
2022/12/04 00:46:37;;;;;;;;;;;1.90;99.90;;;0.86;100.00;96909.25;5053495;28;19963;-39
2022/12/04 00:49:03;;;;;;;;;;;1.90;99.90;;;0.89;100.00;96909.25;5041178;28;19913;-39
2022/12/04 00:51:29;;;;;;;;;;;1.90;99.90;;;0.82;100.00;96903.22;5049432;28;20087;-39
2022/12/04 00:53:55;;;;;;;;;;;1.90;99.90;;;0.87;100.00;96900.59;5050588;28;19964;-39
2022/12/04 00:56:26;;;;;;;;;;;1.90;99.90;;;0.87;100.00;96903.19;5051272;28;19978;-39
2022/12/04 00:58:57;;;;;;;;;;;1.90;99.90;;;0.85;100.00;96903.19;5044673;28;19912;-39
2022/12/04 01:01:24;;;;;;;;;;;1.90;99.90;;;0.87;100.00;96901.47;5049400;28;19927;-39
2022/12/04 01:03:50;;;;;;;;;;;1.90;99.90;;;0.87;100.00;96890.22;5050391;28;20012;-39
2022/12/04 01:06:22;;;;;;;;;;;1.90;99.90;;;0.93;100.00;96905.75;5051197;28;19921;-39
2022/12/04 01:08:49;;;;;;;;;;;1.90;99.90;;;0.96;100.00;96908.31;5038003;28;20955;-39
2022/12/04 01:11:17;;;;;;;;;;;1.90;99.90;;;0.96;100.00;96905.72;5039997;28;20011;-39
2022/12/04 01:13:43;;;;;;;;;;;1.90;99.90;;;0.70;100.00;96848.78;5050657;28;19918;-39
2022/12/04 01:16:18;;;;;;;;;;;2.00;99.90;;;0.98;100.00;96893.59;5050795;28;19989;-39
2022/12/04 01:18:43;;;;;;;;;;;2.00;99.90;;;1.00;100.00;96891.84;5050204;28;19943;-39
2022/12/04 01:21:10;;;;;;;;;;;2.00;99.90;;;0.93;100.00;96880.66;5048766;28;20413;-39
2022/12/04 01:23:35;;;;;;;;;;;2.00;99.90;;;1.02;100.00;96884.03;5050065;28;19923;-39
2022/12/04 01:26:01;;;;;;;;;;;2.00;99.90;;;1.00;100.00;96883.19;5052226;28;19917;-39
2022/12/04 01:28:27;;;;;;;;;;;2.00;99.90;;;1.02;100.00;96902.22;5046910;28;20364;-39
2022/12/04 01:31:01;;;;;;;;;;;2.00;99.90;;;1.01;100.00;96896.19;5050074;28;22168;-39
2022/12/04 01:33:28;;;;;;;;;;;2.00;99.90;;;1.05;100.00;96897.00;5050543;28;19923;-39
2022/12/04 01:35:55;;;;;;;;;;;2.00;99.90;;;1.01;100.00;96893.56;5051041;28;20061;-39
2022/12/04 01:38:21;;;;;;;;;;;2.00;99.90;;;0.99;100.00;96878.88;5052917;28;19916;-39
2022/12/04 01:40:47;;;;;;;;;;;2.00;99.90;;;1.01;100.00;96887.53;5054741;28;20331;-39
2022/12/04 01:43:13;;;;;;;;;;;2.00;99.90;;;1.03;100.00;96897.03;5050747;28;19912;-39
2022/12/04 01:45:41;;;;;;;;;;;2.00;99.90;;;1.00;100.00;96886.66;5049549;28;19916;-39
2022/12/04 01:48:12;;;;;;;;;;;2.00;99.90;;;1.04;100.00;96893.56;5052027;28;19938;-39
2022/12/04 01:50:38;;;;;;;;;;;2.00;99.90;;;1.10;100.00;96887.47;5051207;28;20014;-39
2022/12/04 01:53:04;;;;;;;;;;;2.10;99.90;;;1.06;100.00;96884.03;5076615;28;20121;-39
2022/12/04 01:55:30;;;;;;;;;;;2.10;99.90;;;1.05;100.00;96884.03;5053550;28;19927;-39
2022/12/04 01:57:56;;;;;;;;;;;2.00;99.90;;;1.02;100.00;96891.84;5050651;28;20009;-39
2022/12/04 02:00:23;;;;;;;;;;;2.00;99.90;;;1.03;100.00;96885.78;5053178;28;20301;-39
2022/12/04 02:02:48;;;;;;;;;;;2.00;99.90;;;1.05;100.00;96897.00;5052080;28;20009;-39
2022/12/04 02:05:16;;;;;;;;;;;2.00;99.90;;;1.06;100.00;96903.91;5051248;28;20403;-39
2022/12/04 02:07:44;;;;;;;;;;;2.00;99.90;;;1.06;100.00;96899.59;5054600;28;19908;-39
2022/12/04 02:10:10;;;;;;;;;;;2.00;99.90;;;1.07;100.00;96900.47;5050948;28;19917;-39
2022/12/04 02:13:07;;;;;;;;;;;2.10;99.90;;;1.10;100.00;96892.66;5049119;28;19935;-39
2022/12/04 02:15:41;;;;;;;;;;;2.10;99.90;;;1.08;100.00;96895.25;5054301;28;20651;-39
2022/12/04 02:18:16;;;;;;;;;;;2.10;99.90;;;1.09;100.00;96889.16;5049021;28;19995;-39
2022/12/04 02:20:42;;;;;;;;;;;2.10;99.90;;;1.12;100.00;96880.50;5051369;28;19916;-39
2022/12/04 02:23:26;;;;;;;;;;;2.10;99.90;;;1.11;100.00;96878.78;5055953;28;19913;-39
2022/12/04 02:26:19;;;;;;;;;;;2.10;99.90;;;1.14;100.00;96878.75;5051566;28;19916;-39
2022/12/04 02:28:56;;;;;;;;;;;2.10;99.90;;;1.11;100.00;96874.47;5049628;28;19912;-39
2022/12/04 02:31:29;;;;;;;;;;;2.10;99.90;;;1.10;100.00;96864.94;5053540;28;19913;-39
2022/12/04 02:34:03;;;;;;;;;;;2.10;99.90;;;1.11;100.00;96876.19;5053947;28;19924;-39
2022/12/04 02:36:35;;;;;;;;;;;2.10;99.90;;;1.15;100.00;96870.09;5049641;28;19926;-39
2022/12/04 02:39:05;;;;;;;;;;;2.10;99.90;;;1.14;100.00;96878.75;5056246;28;19916;-39
2022/12/04 02:41:54;;;;;;;;;;;2.10;99.90;;;1.11;100.00;96879.66;5049344;28;19920;-39
2022/12/04 02:44:34;;;;;;;;;;;2.10;99.90;;;1.12;100.00;96872.72;5052035;28;19916;-39
2022/12/04 02:47:03;;;;;;;;;;;2.10;99.90;;;1.09;100.00;96865.78;5048798;28;19916;-39
2022/12/04 02:49:57;;;;;;;;;;;2.10;99.90;;;1.14;100.00;96868.38;5051907;28;19981;-39
2022/12/04 02:52:35;;;;;;;;;;;2.10;99.90;;;1.16;100.00;96865.75;5044639;28;19912;-39
2022/12/04 02:55:05;;;;;;;;;;;2.10;99.90;;;1.12;100.00;96864.94;5047127;28;19920;-39
2022/12/04 02:57:34;;;;;;;;;;;2.10;99.90;;;1.13;100.00;96869.22;5049194;28;19951;-39
2022/12/04 03:00:00;;;;;;;;;;;2.10;99.90;;;1.14;100.00;96857.97;5046922;28;19925;-39
2022/12/04 03:02:37;;;;;;;;;;;2.10;99.90;;;1.04;100.00;96849.41;5042612;28;19916;-39
2022/12/04 03:05:07;;;;;;;;;;;2.10;99.90;;;1.11;100.00;96870.97;5059368;28;19920;-39
2022/12/04 03:07:39;;;;;;;;;;;2.10;99.90;;;1.12;100.00;96864.94;5043618;28;20564;-39
2022/12/04 03:10:09;;;;;;;;;;;2.10;99.90;;;1.16;100.00;96860.56;5041324;28;19975;-39
2022/12/04 03:12:49;;;;;;;;;;;2.10;99.90;;;1.20;100.00;96859.66;5041631;28;19986;-39
2022/12/04 03:15:19;;;;;;;;;;;2.20;99.90;;;1.24;100.00;96857.03;5040290;28;19913;-39
2022/12/04 03:21:11;;;;;;;;;;;2.20;99.90;;;1.20;100.00;96849.28;5048033;28;19927;-39
2022/12/04 03:23:43;;;;;;;;;;;2.20;99.90;;;1.21;100.00;96854.47;5049397;28;19924;-39
2022/12/04 03:26:29;;;;;;;;;;;2.20;99.90;;;1.20;100.00;96855.31;5054257;28;19916;-39
2022/12/04 03:29:00;;;;;;;;;;;2.20;99.90;;;1.17;100.00;96849.28;5057951;28;19920;-39
2022/12/04 03:31:48;;;;;;;;;;;2.10;99.90;;;1.18;100.00;96849.28;5051251;28;19943;-39
2022/12/04 03:34:20;;;;;;;;;;;2.20;99.90;;;1.18;100.00;96841.47;5052424;28;20022;-39
2022/12/04 03:36:50;;;;;;;;;;;2.20;99.90;;;1.09;100.00;96826.84;5058407;28;19970;-39
2022/12/04 03:39:25;;;;;;;;;;;2.10;99.90;;;1.14;100.00;96839.81;5052855;28;19977;-39
2022/12/04 03:42:07;;;;;;;;;;;2.10;99.90;;;1.16;100.00;96845.84;5046352;28;20019;-39
2022/12/04 03:44:57;;;;;;;;;;;2.10;99.90;;;1.14;100.00;96840.66;5053324;28;19971;-39
2022/12/04 03:47:33;;;;;;;;;;;2.10;99.90;;;1.14;100.00;96838.06;5049449;28;19912;-39
2022/12/04 03:50:05;;;;;;;;;;;2.10;99.90;;;1.16;100.00;96837.19;5048882;28;19939;-39
2022/12/04 03:52:34;;;;;;;;;;;2.10;99.90;;;1.18;100.00;96838.03;5051580;28;20003;-39
2022/12/04 03:55:05;;;;;;;;;;;2.10;99.90;;;1.16;100.00;96832.84;5046721;28;20351;-39
2022/12/04 03:57:35;;;;;;;;;;;2.20;99.90;;;1.18;100.00;96844.09;5046509;28;19917;-39
2022/12/04 04:00:05;;;;;;;;;;;2.20;99.90;;;1.16;100.00;96835.44;5044973;28;19932;-39
2022/12/04 04:02:46;;;;;;;;;;;2.10;99.90;;;1.15;100.00;96844.13;5049389;28;19913;-39
2022/12/04 04:05:12;;;;;;;;;;;2.10;99.90;;;1.17;100.00;96838.91;5071720;28;19916;-39
2022/12/04 04:07:47;;;;;;;;;;;2.10;99.90;;;1.08;100.00;96824.28;5046543;28;20811;-39
2022/12/04 04:10:16;;;;;;;;;;;2.10;99.90;;;1.19;100.00;96844.97;5045797;28;19913;-39
2022/12/04 04:24:13;;;;;;;;;;;2.10;99.90;;;1.15;100.00;96844.13;5048848;28;19916;-39
2022/12/04 04:24:14;;;;;;;;;;;2.10;99.90;;;1.09;100.00;96868.41;5046177;28;19927;-39
2022/12/04 04:26:47;;;;;;;;;;;2.10;99.90;;;1.10;100.00;96872.72;5048720;28;20316;-39
2022/12/04 04:29:13;;;;;;;;;;;2.10;99.90;;;1.13;100.00;96870.13;5050693;28;19974;-39
2022/12/04 04:32:11;;;;;;;;;;;2.10;99.90;;;1.10;100.00;96871.88;5046706;28;19917;-39
2022/12/04 04:34:56;;;;;;;;;;;2.10;99.90;;;1.12;100.00;96870.97;5040924;28;19927;-39
2022/12/04 04:37:25;;;;;;;;;;;2.10;99.90;;;1.12;100.00;96870.13;5032570;28;20377;-39
2022/12/04 04:39:55;;;;;;;;;;;2.10;99.90;;;1.11;100.00;96868.38;5042709;28;19951;-39
2022/12/04 04:42:23;;;;;;;;;;;2.10;99.90;;;1.11;100.00;96870.97;5045503;28;20149;-39
2022/12/04 04:44:54;;;;;;;;;;;2.10;99.90;;;1.13;100.00;96859.72;5047533;28;20089;-39
2022/12/04 04:47:30;;;;;;;;;;;2.10;99.90;;;1.17;100.00;96860.56;5036986;28;20281;-39
2022/12/04 04:49:57;;;;;;;;;;;2.10;99.90;;;1.13;100.00;96864.91;5050065;28;20183;-39
2022/12/04 04:52:23;;;;;;;;;;;2.10;99.90;;;1.16;100.00;96858.81;5049734;28;19964;-39
2022/12/04 04:54:49;;;;;;;;;;;2.10;99.90;;;1.18;100.00;96858.81;5049243;28;19962;-39
2022/12/04 04:57:25;;;;;;;;;;;2.10;99.90;;;1.25;100.00;96853.53;5049396;28;19912;-39
2022/12/04 04:59:51;;;;;;;;;;;2.10;99.90;;;1.21;100.00;96858.81;5050201;28;19924;-39
2022/12/04 05:02:17;;;;;;;;;;;2.20;99.90;;;1.19;100.00;96866.59;5041483;28;19928;-39
2022/12/04 05:04:42;;;;;;;;;;;2.20;99.90;;;1.22;100.00;96866.59;5046163;28;19919;-39
2022/12/04 05:07:08;;;;;;;;;;;2.20;99.90;;;1.19;100.00;96869.19;5049802;28;20611;-39
2022/12/04 05:09:33;;;;;;;;;;;2.20;99.90;;;1.24;100.00;96869.13;5046537;28;19916;-39
2022/12/04 05:11:59;;;;;;;;;;;2.20;99.90;;;1.22;100.00;96868.28;5051677;28;19913;-39
2022/12/04 05:14:25;;;;;;;;;;;2.20;99.90;;;1.10;100.00;96851.09;5047871;28;19982;-39
2022/12/04 05:16:50;;;;;;;;;;;2.20;99.90;;;1.22;100.00;96864.00;5048532;28;19920;-39
2022/12/04 05:22:00;;;;;;;;;;;2.20;99.90;;;1.18;100.00;96864.00;5054222;28;19946;-39
2022/12/04 05:24:25;;;;;;;;;;;2.10;99.90;;;1.13;100.00;96864.03;5051674;28;19920;-39
2022/12/04 05:26:51;;;;;;;;;;;2.10;99.90;;;1.11;100.00;96863.19;5052888;28;19920;-39
2022/12/04 05:29:17;;;;;;;;;;;2.10;99.90;;;1.10;100.00;96861.50;5053302;28;19977;-39
2022/12/04 05:31:42;;;;;;;;;;;2.10;99.90;;;1.07;100.00;96858.91;5049700;28;20294;-39
2022/12/04 05:34:08;;;;;;;;;;;2.10;99.90;;;1.08;100.00;96848.50;5054570;28;19923;-39
2022/12/04 05:36:34;;;;;;;;;;;2.10;99.90;;;1.10;100.00;96851.09;5048897;28;19955;-39
2022/12/04 05:38:59;;;;;;;;;;;2.10;99.90;;;1.08;100.00;96850.25;5046267;28;19920;-39
2022/12/04 05:41:25;;;;;;;;;;;2.10;99.90;;;1.09;100.00;96844.16;5042244;28;19942;-39
2022/12/04 05:43:51;;;;;;;;;;;2.10;99.90;;;1.10;100.00;96862.34;5046054;28;20046;-39
2022/12/04 05:46:16;;;;;;;;;;;2.10;99.90;;;1.10;100.00;96866.69;5049473;28;19995;-39
2022/12/04 05:48:42;;;;;;;;;;;2.10;99.90;;;1.14;100.00;96857.97;5046193;28;19921;-39
2022/12/04 05:51:09;;;;;;;;;;;2.10;99.90;;;1.14;100.00;96858.84;5047436;28;19917;-39
2022/12/04 05:53:35;;;;;;;;;;;2.10;99.90;;;1.09;100.00;96849.38;5047850;28;19936;-39
2022/12/04 05:56:02;;;;;;;;;;;2.10;99.90;;;1.12;100.00;96852.78;5049806;28;21878;-39
2022/12/04 05:58:28;;;;;;;;;;;2.10;99.90;;;1.18;100.00;96853.63;5048050;28;19917;-39
2022/12/04 06:00:53;;;;;;;;;;;2.10;99.90;;;1.19;100.00;96853.63;5047832;28;19931;-39
2022/12/04 06:03:19;;;;;;;;;;;2.10;99.90;;;1.15;100.00;96857.13;5052903;28;19908;-39
2022/12/04 06:05:45;;;;;;;;;;;2.10;99.90;;;1.18;100.00;96858.81;5045120;28;20149;-39
2022/12/04 06:08:10;;;;;;;;;;;2.20;99.90;;;1.19;100.00;96865.75;5043043;28;19967;-39
2022/12/04 06:10:36;;;;;;;;;;;2.10;99.90;;;1.17;100.00;96865.75;5045632;28;19916;-39
2022/12/04 06:13:01;;;;;;;;;;;2.20;99.90;;;1.04;100.00;96836.44;5048940;28;20292;-39
2022/12/04 06:15:27;;;;;;;;;;;2.20;99.90;;;1.16;100.00;96866.63;5047005;28;19989;-39
2022/12/04 06:17:53;;;;;;;;;;;2.10;99.90;;;1.17;100.00;96864.88;5049817;28;19923;-39
2022/12/04 06:20:18;;;;;;;;;;;2.10;99.90;;;1.18;100.00;96858.81;5052893;28;20210;-39
2022/12/04 06:22:44;;;;;;;;;;;2.10;99.90;;;1.26;100.00;96857.88;5048030;28;19960;-39
2022/12/04 06:25:09;;;;;;;;;;;2.10;99.90;;;1.20;100.00;96857.91;5047045;28;19920;-39
2022/12/04 06:27:35;;;;;;;;;;;2.20;99.90;;;1.16;100.00;96851.03;5050393;28;19912;-39
2022/12/04 06:30:01;;;;;;;;;;;2.20;99.90;;;1.17;100.00;96850.19;5051308;28;19920;-39
2022/12/04 06:32:27;;;;;;;;;;;2.10;99.90;;;1.17;100.00;96855.38;5046839;28;20075;-39
2022/12/04 06:34:53;;;;;;;;;;;2.20;99.90;;;1.16;100.00;96853.63;5049372;28;20410;-39
2022/12/04 06:37:20;;;;;;;;;;;2.10;99.90;;;1.19;100.00;96861.41;5050509;28;19955;-39
2022/12/04 06:39:46;;;;;;;;;;;2.20;99.90;;;1.16;100.00;96855.38;5048841;28;19920;-39
2022/12/04 06:42:11;;;;;;;;;;;2.10;99.90;;;1.14;100.00;96853.63;5047158;28;20219;-39
2022/12/04 06:44:37;;;;;;;;;;;2.10;99.90;;;1.14;100.00;96857.97;5051943;28;19912;-39
2022/12/04 06:47:02;;;;;;;;;;;2.10;99.90;;;1.16;100.00;96865.75;5046690;28;19912;-39
2022/12/04 06:49:28;;;;;;;;;;;2.10;99.90;;;1.17;100.00;96862.28;5050733;28;20399;-39
2022/12/04 06:51:54;;;;;;;;;;;2.10;99.90;;;1.18;100.00;96859.66;5044220;28;19959;-39
2022/12/04 06:54:19;;;;;;;;;;;2.10;99.90;;;1.21;100.00;96870.03;5043360;28;19912;-39
2022/12/04 06:56:45;;;;;;;;;;;2.20;99.90;;;1.22;100.00;96858.78;5050568;28;20269;-39
2022/12/04 06:59:11;;;;;;;;;;;2.20;99.90;;;1.21;100.00;96862.25;5048483;28;19959;-39
2022/12/04 07:01:36;;;;;;;;;;;2.20;99.90;;;1.26;100.00;96867.41;5047554;28;19996;-39
2022/12/04 07:04:03;;;;;;;;;;;2.20;99.90;;;1.18;100.00;96859.66;5047102;28;20066;-39
2022/12/04 07:06:31;;;;;;;;;;;2.20;99.90;;;1.23;100.00;96870.03;5046152;28;19973;-39
2022/12/04 07:08:59;;;;;;;;;;;2.20;99.90;;;1.22;100.00;96876.97;5050508;28;19913;-39
2022/12/04 07:11:25;;;;;;;;;;;2.20;99.90;;;1.24;100.00;96866.53;5042998;28;20412;-39
2022/12/04 07:13:51;;;;;;;;;;;2.20;99.90;;;1.22;100.00;96866.59;5042843;28;19916;-39
2022/12/04 07:16:19;;;;;;;;;;;2.20;99.90;;;1.26;100.00;96868.28;5041930;28;19921;-39
2022/12/04 07:18:45;;;;;;;;;;;2.20;99.90;;;1.23;100.00;96863.09;5048182;28;19920;-39
2022/12/04 07:21:15;;;;;;;;;;;2.20;99.90;;;1.23;100.00;96868.28;5049100;28;19981;-39
2022/12/04 07:23:40;;;;;;;;;;;2.20;99.90;;;1.23;100.00;96868.28;5044098;28;19955;-39
2022/12/04 07:26:11;;;;;;;;;;;2.20;99.90;;;1.25;100.00;96870.88;5041017;28;19919;-39
2022/12/04 07:28:38;;;;;;;;;;;2.20;99.90;;;1.28;100.00;96860.47;5044117;28;19916;-39
2022/12/04 07:31:07;;;;;;;;;;;2.20;99.90;;;1.25;100.00;96858.75;5046990;28;19920;-39
2022/12/04 07:33:34;;;;;;;;;;;2.20;99.90;;;1.26;100.00;96857.03;5044041;28;20371;-39
2022/12/04 07:36:01;;;;;;;;;;;2.20;99.90;;;1.24;100.00;96858.75;5047157;28;19917;-39
2022/12/04 07:38:28;;;;;;;;;;;2.20;99.90;;;1.27;100.00;96867.38;5044535;28;20027;-39
2022/12/04 07:40:58;;;;;;;;;;;2.20;99.90;;;1.27;100.00;96864.78;5049010;28;19929;-39
2022/12/04 07:43:23;;;;;;;;;;;2.20;99.90;;;1.31;100.00;96860.41;5048354;28;20291;-39
2022/12/04 07:45:49;;;;;;;;;;;2.30;99.90;;;1.33;100.00;96869.94;5050231;28;19919;-39
2022/12/04 07:48:15;;;;;;;;;;;2.30;99.90;;;1.34;100.00;96863.00;5053062;28;20650;-39
2022/12/04 07:50:40;;;;;;;;;;;2.30;99.90;;;1.33;100.00;96858.69;5045700;28;20373;-39
2022/12/04 07:53:06;;;;;;;;;;;2.30;99.90;;;1.42;100.00;96869.00;5043724;28;20669;-39
2022/12/04 07:55:32;;;;;;;;;;;2.40;99.90;;;1.44;100.00;96866.38;5049449;28;19916;-39
2022/12/04 07:57:57;;;;;;;;;;;2.40;99.90;;;1.42;100.00;96869.00;5045368;28;19927;-39
2022/12/04 08:00:23;;;;;;;;;;;2.40;99.90;;;1.47;100.00;96874.13;5045816;28;19974;-39
2022/12/04 08:02:49;;;;;;;;;;;2.40;99.90;;;1.44;100.00;96869.00;5042890;28;19931;-39
2022/12/04 08:05:15;;;;;;;;;;;2.40;99.90;;;1.53;100.00;96882.75;5043393;28;20123;-39
2022/12/04 08:07:41;;;;;;;;;;;2.40;99.90;;;1.52;100.00;96872.34;5035060;28;19943;-39
2022/12/04 08:10:07;;;;;;;;;;;2.40;99.90;;;1.52;100.00;96872.34;5046637;28;20696;-39
2022/12/04 08:12:32;;;;;;;;;;;2.40;99.90;;;1.54;100.00;96878.41;5048925;28;19920;-39
2022/12/04 08:14:58;;;;;;;;;;;2.50;99.90;;;1.58;100.00;96877.50;5047687;28;20594;-39
2022/12/04 08:17:24;;;;;;;;;;;2.50;99.90;;;1.60;100.00;96877.47;5044971;28;19973;-39
2022/12/04 08:19:50;;;;;;;;;;;2.50;99.90;;;1.68;100.00;96867.88;5046529;28;19922;-39
2022/12/04 08:22:15;;;;;;;;;;;2.60;99.90;;;1.73;100.00;96866.09;5040210;28;20190;-39
2022/12/04 08:24:41;;;;;;;;;;;2.60;99.90;;;1.76;100.00;96876.47;5044273;28;20437;-39
2022/12/04 08:27:07;;;;;;;;;;;2.70;99.90;;;1.72;100.00;96864.34;5050196;28;19915;-39
2022/12/04 08:29:32;;;;;;;;;;;2.70;99.90;;;1.77;100.00;96864.31;5050433;28;19916;-39
2022/12/04 08:31:58;;;;;;;;;;;2.70;99.90;;;1.76;100.00;96879.06;5050995;28;20359;-39
2022/12/04 08:34:23;;;;;;;;;;;2.70;99.90;;;1.50;100.00;96836.00;5051746;28;19998;-39
2022/12/04 08:36:49;;;;;;;;;;;2.70;99.90;;;1.78;100.00;96882.50;5052709;28;20011;-39
2022/12/04 08:39:15;;;;;;;;;;;2.70;99.90;;;1.77;100.00;96880.78;5054186;28;20284;-39
2022/12/04 08:41:40;;;;;;;;;;;2.70;99.90;;;1.82;100.00;96889.38;5047453;28;20003;-39
2022/12/04 08:44:06;;;;;;;;;;;2.70;99.90;;;1.80;100.00;96891.16;5051810;28;19993;-39
2022/12/04 08:46:32;;;;;;;;;;;2.80;99.90;;;1.70;100.00;96879.97;5052840;28;20185;-39
2022/12/04 08:48:57;;;;;;;;;;;2.70;99.90;;;1.79;100.00;96896.34;5053671;28;20388;-39
2022/12/04 08:51:25;;;;;;;;;;;2.70;99.90;;;1.82;100.00;96892.00;5054923;28;19919;-39
2022/12/04 08:53:53;;;;;;;;;;;2.70;99.90;;;1.85;100.00;96893.72;5052450;28;19912;-39
2022/12/04 08:56:19;;;;;;;;;;;2.70;99.90;;;1.86;100.00;96893.66;5058246;28;19920;-39
2022/12/04 08:58:44;;;;;;;;;;;2.80;99.90;;;1.86;100.00;96903.22;5056933;28;20417;-39
2022/12/04 09:01:11;;;;;;;;;;;2.80;99.90;;;1.92;100.00;96913.56;5053221;28;19943;-40
2022/12/04 09:03:37;;;;;;;;;;;2.80;99.90;;;1.84;100.00;96894.56;5054826;28;19912;-39
2022/12/04 09:06:04;;;;;;;;;;;2.80;99.90;;;2.04;100.00;96909.97;5049451;28;20560;-39
2022/12/04 09:08:30;;;;;;;;;;;2.90;99.90;;;2.00;100.00;96906.53;5045626;28;19920;-39
2022/12/04 09:11:02;;;;;;;;;;;2.90;99.90;;;1.98;100.00;96907.44;5050866;28;19931;-39
2022/12/04 09:13:27;;;;;;;;;;;2.90;99.90;;;2.05;100.00;96911.69;5054377;28;20257;-39
2022/12/04 09:15:53;;;;;;;;;;;3.00;99.90;;;2.07;100.00;96917.75;5049193;28;19916;-39
2022/12/04 09:18:18;;;;;;;;;;;3.00;99.90;;;2.17;100.00;96913.28;5051795;28;19920;-39
2022/12/04 09:20:44;;;;;;;;;;;3.00;99.90;;;2.15;100.00;96917.63;5050712;28;20361;-40
2022/12/04 09:23:10;;;;;;;;;;;3.10;99.90;;;2.09;100.00;96911.63;5051404;28;19926;-39
2022/12/04 09:25:36;;;;;;;;;;;3.00;99.90;;;2.12;100.00;96912.47;5046712;28;19920;-39
2022/12/04 09:28:03;;;;;;;;;;;3.00;99.90;;;2.09;100.00;96909.03;5052819;28;19913;-40
2022/12/04 09:30:28;;;;;;;;;;;3.00;99.90;;;2.10;100.00;96902.97;5050618;28;19924;-39
2022/12/04 09:32:54;;;;;;;;;;;3.00;99.90;;;1.96;100.00;96875.38;5053106;28;19920;-40
2022/12/04 09:35:19;;;;;;;;;;;3.00;99.90;;;2.08;100.00;96883.91;5049268;28;20256;-39
2022/12/04 09:37:45;;;;;;;;;;;3.00;99.90;;;2.12;100.00;96879.53;5052152;28;19916;-40
2022/12/04 09:40:22;;;;;;;;;;;3.00;99.90;;;2.07;100.00;96869.16;5051044;28;19959;-40
2022/12/04 09:42:55;;;;;;;;;;;3.10;99.90;;;2.16;100.00;96876.00;5073733;28;20002;-40
2022/12/04 09:45:23;;;;;;;;;;;3.10;99.90;;;2.17;100.00;96872.53;5068243;28;19930;-40
2022/12/04 09:47:57;;;;;;;;;;;3.10;99.90;;;1.96;100.00;96834.63;5050207;28;19985;-39
2022/12/04 09:50:24;;;;;;;;;;;3.10;99.90;;;2.23;100.00;96859.44;5053048;28;19927;-39
2022/12/04 09:53:07;;;;;;;;;;;3.20;99.90;;;2.29;100.00;96845.50;5051354;28;19958;-40
2022/12/04 09:55:41;;;;;;;;;;;3.20;99.90;;;2.33;100.00;96830.69;5045663;28;19916;-40
2022/12/04 09:58:13;;;;;;;;;;;3.20;99.90;;;2.37;100.00;96840.16;5043391;28;19998;-40
2022/12/04 10:00:42;;;;;;;;;;;3.30;99.90;;;2.38;100.00;96834.09;5050275;28;20376;-40
2022/12/04 10:03:17;;;;;;;;;;;3.30;99.90;;;2.38;100.00;96824.53;5068826;28;20039;-38
2022/12/04 10:05:48;;;;;;;;;;;3.30;99.90;;;2.36;100.00;96834.13;5044981;28;19924;-38
2022/12/04 10:08:21;;;;;;;;;;;3.30;99.90;;;2.26;100.00;96824.69;5050272;28;19920;-40
2022/12/04 10:11:05;;;;;;;;;;;3.30;99.90;;;2.25;100.00;96825.59;5048007;28;19913;-40
2022/12/04 10:13:43;;;;;;;;;;;3.20;99.90;;;2.24;100.00;96814.34;5029256;28;19920;-40
2022/12/04 10:16:16;;;;;;;;;;;3.20;99.90;;;2.23;100.00;96809.16;5050064;28;19927;-40
2022/12/04 10:18:59;;;;;;;;;;;3.10;99.90;;;2.07;100.00;96809.34;5052364;28;19944;-40
2022/12/04 10:21:52;;;;;;;;;;;3.10;99.90;;;2.13;100.00;96831.81;5052872;28;20003;-40
2022/12/04 10:24:21;;;;;;;;;;;3.10;99.90;;;2.05;100.00;96818.06;5054018;28;20345;-40
2022/12/04 10:26:47;;;;;;;;;;;3.00;99.90;;;2.02;100.00;96818.09;5048231;28;20014;-40
2022/12/04 10:29:25;;;;;;;;;;;3.00;99.90;;;2.00;100.00;96809.44;5051261;28;19924;-40
2022/12/04 10:31:53;;;;;;;;;;;3.00;99.90;;;2.02;100.00;96807.69;5048374;28;19916;-40
2022/12/04 10:34:22;;;;;;;;;;;3.00;99.90;;;2.00;100.00;96805.09;5044128;28;19920;-40
2022/12/04 10:36:51;;;;;;;;;;;3.00;99.90;;;2.00;100.00;96814.66;5045925;28;20191;-40
2022/12/04 10:39:24;;;;;;;;;;;2.90;99.90;;;1.96;100.00;96819.03;5051610;28;19912;-40
2022/12/04 10:42:03;;;;;;;;;;;2.90;99.90;;;1.90;100.00;96827.78;5050000;28;20432;-40
2022/12/04 10:44:28;;;;;;;;;;;2.90;99.90;;;1.83;100.00;96828.72;5048781;28;19912;-40
2022/12/04 10:47:00;;;;;;;;;;;2.90;99.90;;;1.88;100.00;96836.44;5051394;28;20418;-40
2022/12/04 10:49:28;;;;;;;;;;;2.80;99.90;;;1.79;100.00;96844.34;5046943;28;19912;-40
2022/12/04 10:51:54;;;;;;;;;;;2.80;99.90;;;1.80;100.00;96843.50;5049004;28;19926;-40
2022/12/04 10:54:34;;;;;;;;;;;2.80;99.90;;;1.77;100.00;96839.16;5043449;28;19924;-40
2022/12/04 10:57:06;;;;;;;;;;;2.80;99.90;;;1.73;100.00;96834.91;5047722;28;20296;-40
2022/12/04 10:59:32;;;;;;;;;;;2.80;99.90;;;1.69;100.00;96828.88;5049483;28;19973;-40
2022/12/04 11:02:02;;;;;;;;;;;2.70;99.90;;;1.78;100.00;96835.72;5047399;28;19924;-40
2022/12/04 11:04:29;;;;;;;;;;;2.80;99.90;;;1.85;100.00;96826.09;5046986;28;20604;-41
2022/12/04 11:07:01;;;;;;;;;;;2.80;99.90;;;1.85;100.00;96815.72;5041751;28;20070;-41
2022/12/04 11:09:28;;;;;;;;;;;2.80;99.90;;;1.84;100.00;96819.16;5043169;28;20033;-40
2022/12/04 11:12:05;;;;;;;;;;;2.80;99.90;;;1.92;100.00;96817.34;5051674;28;19920;-40
2022/12/04 11:14:30;;;;;;;;;;;2.80;99.90;;;1.91;100.00;96819.06;5051426;28;19912;-40
2022/12/04 11:17:02;;;;;;;;;;;2.80;99.90;;;1.91;100.00;96824.28;5048338;28;20291;-40
2022/12/04 11:19:30;;;;;;;;;;;2.80;99.90;;;1.89;100.00;96817.38;5046005;28;20033;-42
2022/12/04 11:22:02;;;;;;;;;;;2.90;99.90;;;1.88;100.00;96824.34;5047630;28;20629;-43
2022/12/04 11:24:30;;;;;;;;;;;2.80;99.90;;;1.78;100.00;96803.66;5049470;28;19912;-38
2022/12/04 11:26:56;;;;;;;;;;;2.80;99.90;;;1.74;100.00;96808.00;5047793;28;19916;-38
2022/12/04 11:29:31;;;;;;;;;;;2.80;99.90;;;1.74;100.00;96817.53;5048907;28;19912;-40
2022/12/04 11:31:57;;;;;;;;;;;2.70;99.90;;;1.70;100.00;96791.56;5044455;28;19927;-40
2022/12/04 11:34:27;;;;;;;;;;;2.70;99.90;;;1.77;100.00;96792.38;5047661;28;19921;-39
2022/12/04 11:36:54;;;;;;;;;;;2.70;99.90;;;1.78;100.00;96801.91;5049592;28;22040;-40
2022/12/04 11:39:38;;;;;;;;;;;2.70;99.90;;;1.79;100.00;96798.41;5044568;28;19912;-40
2022/12/04 11:42:15;;;;;;;;;;;2.70;99.90;;;1.76;100.00;96811.47;5047373;28;19978;-41
2022/12/04 11:44:55;;;;;;;;;;;2.70;99.90;;;1.63;100.00;96804.66;5051932;28;20119;-41
2022/12/04 11:47:24;;;;;;;;;;;2.70;99.90;;;1.77;100.00;96820.97;5050839;28;19983;-41